createdAt,value
2023-05-21T00:00:40.536Z,83.31
2023-05-21T00:03:30.292Z,83.42
2023-05-21T00:05:58.052Z,83.54
2023-05-21T00:08:25.578Z,83.22
2023-05-21T00:10:53.143Z,83.05
2023-05-21T00:13:20.686Z,82.56
2023-05-21T00:15:48.203Z,82.40
2023-05-21T00:18:16.208Z,82.41
2023-05-21T00:20:43.875Z,82.46
2023-05-21T00:23:11.382Z,82.81
2023-05-21T00:25:38.898Z,82.90
2023-05-21T00:28:06.522Z,82.71
2023-05-21T00:30:34.061Z,82.66
2023-05-21T00:33:02.938Z,83.09
2023-05-21T00:35:30.798Z,82.80
2023-05-21T00:37:58.444Z,82.54
2023-05-21T00:40:25.966Z,82.69
2023-05-21T00:42:53.529Z,82.91
2023-05-21T00:45:21.024Z,82.89
2023-05-21T00:47:48.936Z,83.01
2023-05-21T00:50:16.595Z,83.10
2023-05-21T00:52:45.664Z,83.15
2023-05-21T00:55:13.292Z,83.46
2023-05-21T00:57:41.525Z,83.60
2023-05-21T01:00:10.734Z,83.87
2023-05-21T01:02:38.661Z,84.03
2023-05-21T01:05:06.886Z,83.94
2023-05-21T01:07:34.830Z,83.73
2023-05-21T01:10:02.391Z,83.44
2023-05-21T01:12:29.951Z,83.39
2023-05-21T01:14:57.698Z,82.97
2023-05-21T01:17:25.205Z,82.34
2023-05-21T01:19:52.948Z,82.40
2023-05-21T01:22:20.596Z,82.36
2023-05-21T01:24:48.319Z,82.28
2023-05-21T01:27:16.041Z,82.13
2023-05-21T01:29:43.524Z,82.00
2023-05-21T01:32:11.178Z,81.90
2023-05-21T01:34:38.793Z,81.99
2023-05-21T01:37:06.818Z,82.03
2023-05-21T01:39:34.534Z,81.89
2023-05-21T01:42:02.085Z,81.88
2023-05-21T01:44:29.662Z,81.91
2023-05-21T01:46:57.163Z,82.10
2023-05-21T01:49:24.747Z,82.40
2023-05-21T01:51:52.258Z,82.36
2023-05-21T01:54:19.784Z,82.42
2023-05-21T01:56:47.944Z,83.02
2023-05-21T01:59:17.196Z,83.36
2023-05-21T02:01:44.736Z,83.80
2023-05-21T02:04:12.706Z,83.77
2023-05-21T02:06:41.774Z,83.46
2023-05-21T02:09:09.459Z,82.94
2023-05-21T02:11:37.036Z,82.60
2023-05-21T02:14:04.773Z,82.91
2023-05-21T02:16:32.350Z,83.31
2023-05-21T02:19:00.703Z,83.37
2023-05-21T02:21:28.530Z,83.50
2023-05-21T02:23:56.241Z,83.18
2023-05-21T02:26:23.794Z,82.77
2023-05-21T02:28:52.929Z,82.96
2023-05-21T02:31:20.414Z,83.22
2023-05-21T02:33:48.056Z,83.15
2023-05-21T02:36:18.941Z,83.22
2023-05-21T02:38:46.655Z,83.37
2023-05-21T02:41:14.218Z,83.50
2023-05-21T02:43:41.716Z,83.78
2023-05-21T02:46:09.263Z,83.83
2023-05-21T02:48:36.881Z,83.79
2023-05-21T02:51:04.361Z,83.34
2023-05-21T02:53:32.178Z,83.07
2023-05-21T02:55:59.881Z,82.90
2023-05-21T02:58:27.476Z,82.96
2023-05-21T03:00:55.194Z,83.07
2023-05-21T03:03:22.898Z,83.47
2023-05-21T03:05:50.981Z,83.13
2023-05-21T03:08:18.682Z,82.89
2023-05-21T03:10:46.204Z,82.82
2023-05-21T03:13:13.752Z,82.70
2023-05-21T03:15:41.343Z,82.70
2023-05-21T03:18:08.892Z,82.81
2023-05-21T03:20:37.343Z,82.96
2023-05-21T03:23:04.867Z,83.11
2023-05-21T03:25:32.419Z,83.19
2023-05-21T03:27:59.934Z,82.99
2023-05-21T03:30:27.463Z,82.85
2023-05-21T03:32:56.536Z,82.66
2023-05-21T03:35:24.083Z,82.56
2023-05-21T03:37:51.591Z,82.10
2023-05-21T03:40:19.232Z,82.18
2023-05-21T03:42:46.771Z,82.29
2023-05-21T03:45:14.321Z,82.37
2023-05-21T03:47:43.072Z,82.29
2023-05-21T03:50:10.655Z,82.03
2023-05-21T03:52:38.145Z,81.86
2023-05-21T03:55:05.744Z,81.82
2023-05-21T03:57:33.332Z,81.92
2023-05-21T04:00:00.895Z,81.93
2023-05-21T04:02:28.893Z,81.66
2023-05-21T04:04:56.718Z,81.39
2023-05-21T04:07:24.397Z,81.38
2023-05-21T04:09:52.171Z,81.48
2023-05-21T04:12:22.618Z,81.55
2023-05-21T04:14:50.302Z,81.55
2023-05-21T04:17:19.292Z,81.46
2023-05-21T04:19:46.800Z,81.34
2023-05-21T04:22:14.282Z,80.92
2023-05-21T04:24:42.666Z,80.97
2023-05-21T04:27:10.212Z,81.00
2023-05-21T04:29:42.621Z,80.85
2023-05-21T04:32:11.654Z,80.82
2023-05-21T04:34:42.973Z,80.87
2023-05-21T04:37:10.649Z,80.83
2023-05-21T04:39:38.614Z,80.03
2023-05-21T04:42:06.124Z,79.81
2023-05-21T04:44:33.778Z,79.61
2023-05-21T04:47:02.353Z,79.33
2023-05-21T04:49:30.176Z,79.01
2023-05-21T04:51:59.157Z,79.03
2023-05-21T04:54:27.761Z,78.64
2023-05-21T04:56:55.366Z,78.64
2023-05-21T04:59:22.924Z,78.29
2023-05-21T05:01:50.672Z,78.30
2023-05-21T05:04:18.220Z,78.29
2023-05-21T05:06:45.715Z,77.95
2023-05-21T05:09:13.518Z,78.38
2023-05-21T05:11:41.193Z,78.32
2023-05-21T05:14:08.847Z,77.80
2023-05-21T05:16:36.488Z,77.39
2023-05-21T05:19:04.154Z,77.58
2023-05-21T05:21:31.908Z,78.16
2023-05-21T05:23:59.490Z,78.20
2023-05-21T05:26:27.039Z,78.40
2023-05-21T05:28:54.574Z,78.26
2023-05-21T05:31:22.156Z,78.57
2023-05-21T05:33:49.732Z,78.41
2023-05-21T05:36:17.339Z,78.20
2023-05-21T05:38:44.960Z,77.90
2023-05-21T05:41:12.475Z,77.85
2023-05-21T05:43:40.005Z,77.99
2023-05-21T05:46:07.696Z,78.48
2023-05-21T05:48:35.521Z,78.46
2023-05-21T05:51:03.018Z,77.89
2023-05-21T05:53:32.070Z,77.98
2023-05-21T05:56:00.054Z,77.62
2023-05-21T05:58:27.617Z,77.95
2023-05-21T06:00:55.148Z,78.07
2023-05-21T06:03:22.855Z,77.70
2023-05-21T06:05:51.717Z,77.46
2023-05-21T06:08:19.444Z,77.73
2023-05-21T06:10:47.070Z,77.61
2023-05-21T06:13:14.554Z,77.76
2023-05-21T06:15:43.217Z,77.33
2023-05-21T06:18:11.606Z,77.25
2023-05-21T06:20:39.421Z,77.18
2023-05-21T06:23:08.873Z,77.22
2023-05-21T06:25:36.721Z,76.69
2023-05-21T06:28:04.461Z,76.22
2023-05-21T06:30:31.973Z,76.39
2023-05-21T06:32:59.583Z,76.16
2023-05-21T06:35:27.194Z,75.99
2023-05-21T06:37:54.868Z,75.82
2023-05-21T06:40:22.401Z,75.75
2023-05-21T06:42:50.047Z,75.04
2023-05-21T06:45:17.789Z,75.06
2023-05-21T06:47:45.354Z,74.58
2023-05-21T06:50:12.922Z,74.09
2023-05-21T06:52:40.622Z,74.29
2023-05-21T06:55:08.254Z,73.56
2023-05-21T06:57:35.982Z,72.83
2023-05-21T07:00:03.563Z,73.17
2023-05-21T07:02:31.136Z,72.41
2023-05-21T07:04:59.035Z,73.01
2023-05-21T07:07:26.819Z,71.79
2023-05-21T07:09:54.343Z,70.79
2023-05-21T07:12:22.049Z,71.07
2023-05-21T07:14:49.791Z,69.87
2023-05-21T07:17:17.297Z,69.88
2023-05-21T07:19:44.821Z,68.96
2023-05-21T07:22:12.745Z,67.69
2023-05-21T07:24:40.283Z,67.78
2023-05-21T07:27:17.831Z,67.77
2023-05-21T07:29:52.791Z,67.07
2023-05-21T07:32:20.525Z,64.87
2023-05-21T07:34:48.148Z,65.54
2023-05-21T07:37:15.737Z,64.37
2023-05-21T07:39:43.255Z,64.47
2023-05-21T07:42:10.847Z,65.92
2023-05-21T07:44:38.464Z,64.47
2023-05-21T07:47:06.007Z,63.85
2023-05-21T07:49:33.550Z,64.36
2023-05-21T07:52:01.297Z,64.09
2023-05-21T07:54:28.885Z,63.86
2023-05-21T07:56:56.437Z,64.09
2023-05-21T07:59:23.978Z,63.64
2023-05-21T08:01:51.637Z,63.12
2023-05-21T08:04:19.296Z,63.75
2023-05-21T08:06:48.564Z,60.89
2023-05-21T08:09:16.085Z,60.68
2023-05-21T08:11:43.590Z,59.77
2023-05-21T08:14:11.746Z,59.86
2023-05-21T08:16:39.605Z,58.67
2023-05-21T08:19:07.204Z,59.55
2023-05-21T08:21:35.107Z,60.19
2023-05-21T08:24:03.037Z,60.08
2023-05-21T08:26:31.113Z,59.04
2023-05-21T08:28:59.261Z,59.39
2023-05-21T08:31:27.347Z,58.72
2023-05-21T08:33:56.423Z,56.69
2023-05-21T08:36:24.342Z,56.87
2023-05-21T08:38:51.921Z,56.68
2023-05-21T08:41:19.612Z,57.68
2023-05-21T08:43:49.359Z,57.37
2023-05-21T08:46:18.357Z,55.99
2023-05-21T08:48:45.953Z,56.79
2023-05-21T08:51:13.610Z,56.54
2023-05-21T08:53:41.655Z,55.82
2023-05-21T08:56:09.275Z,56.40
2023-05-21T08:58:36.977Z,56.18
2023-05-21T09:01:04.699Z,55.34
2023-05-21T09:03:33.115Z,56.48
2023-05-21T09:06:00.731Z,56.41
2023-05-21T09:08:28.334Z,55.83
2023-05-21T09:10:55.910Z,56.34
2023-05-21T09:13:23.512Z,56.59
2023-05-21T09:15:51.680Z,55.00
2023-05-21T09:18:19.244Z,55.45
2023-05-21T09:20:46.863Z,55.68
2023-05-21T09:23:16.976Z,54.49
2023-05-21T09:25:44.613Z,53.49
2023-05-21T09:28:12.319Z,52.91
2023-05-21T09:30:39.991Z,53.76
2023-05-21T09:33:07.852Z,53.86
2023-05-21T09:35:36.310Z,54.26
2023-05-21T09:38:05.779Z,53.33
2023-05-21T09:40:33.490Z,53.69
2023-05-21T09:43:01.067Z,53.96
2023-05-21T09:45:28.580Z,52.20
2023-05-21T09:47:56.201Z,52.26
2023-05-21T09:50:23.858Z,53.32
2023-05-21T09:52:52.971Z,53.70
2023-05-21T09:55:20.761Z,53.08
2023-05-21T09:57:50.487Z,51.52
2023-05-21T10:00:18.414Z,51.74
2023-05-21T10:02:47.039Z,52.82
2023-05-21T10:05:14.953Z,52.61
2023-05-21T10:07:42.473Z,52.41
2023-05-21T10:10:09.981Z,52.37
2023-05-21T10:12:37.573Z,53.00
2023-05-21T10:15:05.066Z,52.75
2023-05-21T10:17:32.797Z,51.93
2023-05-21T10:20:01.654Z,52.55
2023-05-21T10:22:29.220Z,51.62
2023-05-21T10:24:56.793Z,52.69
2023-05-21T10:27:24.384Z,51.71
2023-05-21T10:29:51.977Z,51.89
2023-05-21T10:32:19.666Z,52.12
2023-05-21T10:34:47.334Z,50.83
2023-05-21T10:37:14.870Z,51.30
2023-05-21T10:39:42.454Z,51.14
2023-05-21T10:42:11.096Z,50.19
2023-05-21T10:44:38.642Z,50.50
2023-05-21T10:47:06.175Z,51.23
2023-05-21T10:49:33.777Z,51.91
2023-05-21T10:52:01.306Z,51.89
2023-05-21T10:54:28.888Z,52.10
2023-05-21T10:56:56.436Z,51.62
2023-05-21T10:59:23.931Z,50.93
2023-05-21T11:01:55.325Z,51.13
2023-05-21T11:04:23.189Z,51.29
2023-05-21T11:06:50.879Z,50.26
2023-05-21T11:09:18.487Z,50.21
2023-05-21T11:11:48.716Z,50.93
2023-05-21T11:14:16.294Z,49.97
2023-05-21T11:16:44.039Z,51.38
2023-05-21T11:19:11.840Z,51.27
2023-05-21T11:21:39.361Z,52.09
2023-05-21T11:24:08.459Z,50.37
2023-05-21T11:26:36.073Z,51.30
2023-05-21T11:29:03.568Z,50.20
2023-05-21T11:31:38.146Z,50.08
2023-05-21T11:34:05.982Z,51.92
2023-05-21T11:36:36.075Z,50.35
2023-05-21T11:39:03.793Z,50.82
2023-05-21T11:41:31.526Z,51.67
2023-05-21T11:43:59.328Z,51.68
2023-05-21T11:46:27.334Z,50.86
2023-05-21T11:48:54.869Z,51.13
2023-05-21T11:51:22.514Z,50.66
2023-05-21T11:53:50.229Z,50.70
2023-05-21T11:56:18.364Z,49.71
2023-05-21T11:58:45.907Z,49.37
2023-05-21T12:01:13.488Z,50.08
2023-05-21T12:03:41.093Z,51.48
2023-05-21T12:06:09.287Z,50.74
2023-05-21T12:08:38.449Z,50.81
2023-05-21T12:11:06.102Z,50.12
2023-05-21T12:13:33.607Z,49.63
2023-05-21T12:16:01.235Z,49.36
2023-05-21T12:18:28.770Z,49.12
2023-05-21T12:20:56.453Z,47.88
2023-05-21T12:23:24.064Z,48.75
2023-05-21T12:25:52.269Z,48.15
2023-05-21T12:28:19.843Z,47.54
2023-05-21T12:30:47.408Z,47.99
2023-05-21T12:33:17.951Z,47.42
2023-05-21T12:35:45.521Z,47.61
2023-05-21T12:38:13.089Z,48.54
2023-05-21T12:40:41.384Z,47.88
2023-05-21T12:43:09.104Z,48.10
2023-05-21T12:45:39.381Z,48.68
2023-05-21T12:48:07.081Z,47.73
2023-05-21T12:50:36.061Z,47.76
2023-05-21T12:53:03.983Z,46.63
2023-05-21T12:55:31.628Z,47.67
2023-05-21T12:57:59.212Z,48.90
2023-05-21T13:00:26.759Z,48.87
2023-05-21T13:02:56.437Z,47.21
2023-05-21T13:05:24.011Z,47.47
2023-05-21T13:07:51.952Z,46.67
2023-05-21T13:10:19.595Z,46.56
2023-05-21T13:12:47.524Z,47.00
2023-05-21T13:15:15.753Z,47.51
2023-05-21T13:17:43.386Z,45.44
2023-05-21T13:20:15.171Z,46.48
2023-05-21T13:22:43.133Z,46.13
2023-05-21T13:25:11.403Z,45.94
2023-05-21T13:27:38.965Z,45.79
2023-05-21T13:30:06.612Z,46.13
2023-05-21T13:32:34.346Z,45.47
2023-05-21T13:35:02.024Z,45.66
2023-05-21T13:37:29.580Z,45.33
2023-05-21T13:39:57.096Z,45.57
2023-05-21T13:42:24.617Z,45.74
2023-05-21T13:44:52.198Z,45.83
2023-05-21T13:47:19.688Z,44.50
2023-05-21T13:49:47.236Z,45.00
2023-05-21T13:52:14.844Z,45.17
2023-05-21T13:54:42.364Z,45.51
2023-05-21T13:57:09.961Z,45.75
2023-05-21T13:59:37.638Z,45.09
2023-05-21T14:02:05.476Z,44.64
2023-05-21T14:04:33.102Z,43.60
2023-05-21T14:07:01.044Z,44.54
2023-05-21T14:09:28.521Z,45.00
2023-05-21T14:11:57.180Z,45.24
2023-05-21T14:14:24.941Z,45.76
2023-05-21T14:16:52.519Z,45.19
2023-05-21T14:19:20.442Z,44.77
2023-05-21T14:21:48.155Z,45.58
2023-05-21T14:24:15.846Z,44.87
2023-05-21T14:26:43.415Z,44.58
2023-05-21T14:29:10.947Z,44.97
2023-05-21T14:31:38.498Z,44.48
2023-05-21T14:34:08.822Z,45.30
2023-05-21T14:36:36.713Z,44.79
2023-05-21T14:39:04.286Z,45.86
2023-05-21T14:41:31.960Z,45.40
2023-05-21T14:43:59.575Z,44.99
2023-05-21T14:46:27.219Z,45.38
2023-05-21T14:48:59.154Z,45.12
2023-05-21T14:51:26.799Z,45.37
2023-05-21T14:53:54.401Z,45.51
2023-05-21T14:56:23.494Z,45.38
2023-05-21T14:58:51.251Z,45.54
2023-05-21T15:01:18.811Z,44.12
2023-05-21T15:03:46.463Z,44.59
2023-05-21T15:06:14.100Z,44.77
2023-05-21T15:08:41.723Z,45.16
2023-05-21T15:11:10.049Z,45.31
2023-05-21T15:13:37.723Z,45.90
2023-05-21T15:16:05.314Z,45.49
2023-05-21T15:18:32.922Z,45.23
2023-05-21T15:21:00.710Z,45.22
2023-05-21T15:23:28.381Z,45.18
2023-05-21T15:25:56.082Z,44.97
2023-05-21T15:28:23.627Z,45.41
2023-05-21T15:30:51.302Z,45.36
2023-05-21T15:33:18.897Z,44.78
2023-05-21T15:35:46.541Z,44.81
2023-05-21T15:38:14.191Z,45.20
2023-05-21T15:40:42.270Z,44.92
2023-05-21T15:43:09.890Z,44.89
2023-05-21T15:45:38.564Z,44.69
2023-05-21T15:48:06.835Z,45.42
2023-05-21T15:50:35.928Z,45.67
2023-05-21T15:53:03.504Z,45.74
2023-05-21T15:55:31.457Z,45.93
2023-05-21T15:58:01.414Z,45.98
2023-05-21T16:00:29.901Z,45.95
2023-05-21T16:02:57.620Z,45.66
2023-05-21T16:05:25.482Z,45.41
2023-05-21T16:07:53.030Z,45.31
2023-05-21T16:10:20.620Z,45.79
2023-05-21T16:12:48.199Z,45.52
2023-05-21T16:15:15.760Z,46.01
2023-05-21T16:17:43.353Z,45.95
2023-05-21T16:20:11.218Z,46.11
2023-05-21T16:22:38.756Z,46.49
2023-05-21T16:25:06.235Z,45.78
2023-05-21T16:27:35.192Z,45.10
2023-05-21T16:30:02.736Z,45.03
2023-05-21T16:32:30.374Z,45.00
2023-05-21T16:34:58.062Z,45.29
2023-05-21T16:37:25.887Z,45.54
2023-05-21T16:39:53.456Z,45.72
2023-05-21T16:42:21.292Z,45.69
2023-05-21T16:44:49.157Z,45.39
2023-05-21T16:47:16.881Z,45.37
2023-05-21T16:49:44.524Z,45.49
2023-05-21T16:52:12.039Z,45.31
2023-05-21T16:54:39.627Z,45.46
2023-05-21T16:57:07.295Z,46.08
2023-05-21T16:59:34.794Z,46.46
2023-05-21T17:02:02.981Z,46.91
2023-05-21T17:04:30.878Z,46.85
2023-05-21T17:06:58.402Z,47.13
2023-05-21T17:09:26.017Z,47.59
2023-05-21T17:11:54.037Z,47.73
2023-05-21T17:14:33.095Z,47.98
2023-05-21T17:17:02.311Z,48.37
2023-05-21T17:19:30.150Z,48.70
2023-05-21T17:21:57.976Z,48.85
2023-05-21T17:24:25.904Z,49.28
2023-05-21T17:26:53.709Z,49.72
2023-05-21T17:29:21.441Z,50.01
2023-05-21T17:31:49.095Z,50.07
2023-05-21T17:34:18.013Z,50.32
2023-05-21T17:36:45.551Z,50.68
2023-05-21T17:39:13.272Z,51.05
2023-05-21T17:41:40.862Z,51.34
2023-05-21T17:44:08.552Z,51.68
2023-05-21T17:46:36.125Z,51.99
2023-05-21T17:49:03.848Z,52.32
2023-05-21T17:51:31.603Z,52.58
2023-05-21T17:53:59.509Z,52.90
2023-05-21T17:56:27.412Z,53.19
2023-05-21T17:58:55.009Z,53.16
2023-05-21T18:01:22.894Z,53.41
2023-05-21T18:03:51.407Z,53.53
2023-05-21T18:06:19.048Z,53.86
2023-05-21T18:08:46.629Z,54.00
2023-05-21T18:11:14.224Z,54.15
2023-05-21T18:13:42.427Z,54.22
2023-05-21T18:16:10.425Z,54.32
2023-05-21T18:18:38.504Z,54.34
2023-05-21T18:21:05.996Z,54.50
2023-05-21T18:23:34.174Z,54.34
2023-05-21T18:26:01.772Z,54.43
2023-05-21T18:28:31.841Z,54.30
2023-05-21T18:31:04.364Z,54.50
2023-05-21T18:33:32.403Z,54.47
2023-05-21T18:35:59.941Z,54.60
2023-05-21T18:38:28.521Z,54.79
2023-05-21T18:40:56.051Z,54.97
2023-05-21T18:43:23.879Z,55.11
2023-05-21T18:45:51.824Z,55.20
2023-05-21T18:48:20.175Z,55.29
2023-05-21T18:50:47.673Z,55.35
2023-05-21T18:53:15.763Z,55.48
2023-05-21T18:55:43.746Z,55.54
2023-05-21T18:58:11.246Z,55.62
2023-05-21T19:00:39.900Z,55.70
2023-05-21T19:03:07.584Z,55.72
2023-05-21T19:05:35.360Z,55.83
2023-05-21T19:08:04.044Z,55.95
2023-05-21T19:10:32.402Z,56.05
2023-05-21T19:13:00.061Z,56.07
2023-05-21T19:15:27.728Z,56.26
2023-05-21T19:17:55.391Z,56.27
2023-05-21T19:20:23.197Z,56.33
2023-05-21T19:22:51.080Z,56.46
2023-05-21T19:25:18.662Z,56.43
2023-05-21T19:27:46.285Z,56.51
2023-05-21T19:30:13.820Z,56.48
2023-05-21T19:32:41.538Z,56.64
2023-05-21T19:35:09.079Z,56.96
2023-05-21T19:37:36.874Z,57.15
2023-05-21T19:40:06.116Z,57.66
2023-05-21T19:42:33.666Z,58.22
2023-05-21T19:45:01.310Z,58.55
2023-05-21T19:47:30.782Z,58.71
2023-05-21T19:49:58.374Z,58.92
2023-05-21T19:52:26.316Z,59.01
2023-05-21T19:54:54.831Z,59.27
2023-05-21T19:57:22.474Z,59.59
2023-05-21T19:59:50.204Z,60.02
2023-05-21T20:02:19.037Z,60.36
2023-05-21T20:04:47.041Z,60.53
2023-05-21T20:07:14.807Z,60.77
2023-05-21T20:09:42.395Z,60.93
2023-05-21T20:12:10.170Z,60.90
2023-05-21T20:14:38.031Z,60.98
2023-05-21T20:17:05.897Z,61.00
2023-05-21T20:19:33.700Z,61.09
2023-05-21T20:22:01.609Z,61.13
2023-05-21T20:24:29.131Z,61.09
2023-05-21T20:26:56.643Z,61.12
2023-05-21T20:29:24.292Z,61.12
2023-05-21T20:31:51.812Z,61.23
2023-05-21T20:34:21.557Z,61.22
2023-05-21T20:36:49.216Z,61.33
2023-05-21T20:39:16.927Z,61.32
2023-05-21T20:41:44.770Z,61.38
2023-05-21T20:44:13.777Z,61.33
2023-05-21T20:46:41.683Z,61.33
2023-05-21T20:49:09.874Z,61.34
2023-05-21T20:51:37.477Z,61.37
2023-05-21T20:54:05.074Z,61.40
2023-05-21T20:59:03.263Z,61.46
2023-05-21T21:01:31.845Z,61.63
2023-05-21T21:03:59.602Z,61.77
2023-05-21T21:06:31.599Z,61.92
2023-05-21T21:08:59.389Z,62.03
2023-05-21T21:11:27.163Z,62.32
2023-05-21T21:13:54.711Z,62.63
2023-05-21T21:16:22.288Z,62.80
2023-05-21T21:18:49.892Z,62.96
2023-05-21T21:21:17.525Z,63.11
2023-05-21T21:23:45.081Z,63.10
2023-05-21T21:26:12.642Z,63.20
2023-05-21T21:28:40.211Z,63.16
2023-05-21T21:31:07.747Z,63.19
2023-05-21T21:33:35.427Z,63.27
2023-05-21T21:36:03.197Z,63.36
2023-05-21T21:38:30.680Z,63.43
2023-05-21T21:40:59.931Z,63.50
2023-05-21T21:43:27.597Z,63.59
2023-05-21T21:45:55.150Z,63.60
2023-05-21T21:48:22.729Z,63.74
2023-05-21T21:50:50.320Z,63.97
2023-05-21T21:53:18.167Z,64.04
2023-05-21T21:55:45.786Z,64.18
2023-05-21T21:58:13.594Z,64.32
2023-05-21T22:00:41.337Z,64.50
2023-05-21T22:03:09.052Z,64.83
2023-05-21T22:05:36.809Z,65.15
2023-05-21T22:08:04.418Z,65.21
2023-05-21T22:10:33.526Z,65.50
2023-05-21T22:13:02.960Z,65.80
2023-05-21T22:15:32.148Z,66.15
2023-05-21T22:18:02.415Z,66.57
2023-05-21T22:20:30.165Z,66.64
2023-05-21T22:22:57.705Z,66.64
2023-05-21T22:25:25.214Z,66.84
2023-05-21T22:27:52.833Z,67.08
2023-05-21T22:30:20.369Z,67.27
2023-05-21T22:32:47.978Z,67.41
2023-05-21T22:35:15.721Z,67.64
2023-05-21T22:37:43.430Z,68.03
2023-05-21T22:40:11.175Z,68.51
2023-05-21T22:42:38.761Z,69.07
2023-05-21T22:45:06.788Z,69.31
2023-05-21T22:47:37.002Z,69.79
2023-05-21T22:50:04.591Z,69.94
2023-05-21T22:52:32.506Z,70.09
2023-05-21T22:55:00.736Z,70.20
2023-05-21T22:57:28.570Z,70.20
2023-05-21T22:59:56.278Z,70.23
2023-05-21T23:02:23.880Z,70.60
2023-05-21T23:04:51.565Z,70.70
2023-05-21T23:07:19.181Z,70.78
2023-05-21T23:09:47.107Z,71.02
2023-05-21T23:12:14.682Z,71.20
2023-05-21T23:14:42.184Z,71.03
2023-05-21T23:17:09.738Z,70.78
2023-05-21T23:19:37.608Z,70.77
2023-05-21T23:22:05.410Z,70.77
2023-05-21T23:24:35.168Z,70.61
2023-05-21T23:27:03.170Z,70.72
2023-05-21T23:29:30.811Z,70.82
2023-05-21T23:31:58.517Z,70.74
2023-05-21T23:34:26.194Z,70.68
2023-05-21T23:36:53.692Z,70.53
2023-05-21T23:39:21.475Z,70.37
2023-05-21T23:41:49.014Z,70.57
2023-05-21T23:44:16.584Z,70.68
2023-05-21T23:46:44.107Z,70.57
2023-05-21T23:49:11.988Z,70.68
2023-05-21T23:51:39.771Z,70.67
2023-05-21T23:54:08.150Z,70.77
2023-05-21T23:56:35.807Z,70.77
2023-05-21T23:59:03.361Z,70.98
